createdAt,value
2019-01-23T00:01:08.282Z,48.50
2019-01-23T00:03:39.942Z,46.43
2019-01-23T00:06:11.857Z,46.13
2019-01-23T00:08:43.609Z,45.33
2019-01-23T00:11:15.463Z,45.87
2019-01-23T00:13:47.223Z,45.73
2019-01-23T00:16:18.702Z,45.67
2019-01-23T00:18:50.018Z,44.23
2019-01-23T00:21:21.425Z,43.53
2019-01-23T00:23:53.289Z,45.53
2019-01-23T00:26:25.089Z,44.47
2019-01-23T00:28:57.004Z,46.73
2019-01-23T00:31:28.506Z,46.20
2019-01-23T00:34:00.112Z,47.70
2019-01-23T00:36:31.889Z,47.23
2019-01-23T00:39:04.456Z,46.80
2019-01-23T00:41:36.109Z,46.33
2019-01-23T00:44:07.625Z,46.27
2019-01-23T00:46:44.697Z,46.87
2019-01-23T00:49:16.390Z,50.00
2019-01-23T00:51:47.952Z,47.00
2019-01-23T00:54:20.655Z,48.47
2019-01-23T00:56:52.986Z,47.77
2019-01-23T00:59:24.902Z,46.83
2019-01-23T01:01:56.400Z,47.40
2019-01-23T01:04:28.331Z,46.73
2019-01-23T01:07:00.130Z,46.60
2019-01-23T01:09:31.392Z,47.33
2019-01-23T01:12:03.077Z,45.70
2019-01-23T01:14:34.948Z,46.13
2019-01-23T01:17:07.463Z,45.23
2019-01-23T01:19:39.131Z,46.40
2019-01-23T01:22:10.756Z,47.73
2019-01-23T01:24:42.331Z,47.20
2019-01-23T01:27:14.545Z,46.53
2019-01-23T01:29:46.359Z,44.20
2019-01-23T01:32:17.573Z,47.57
2019-01-23T01:34:48.859Z,45.60
2019-01-23T01:37:20.558Z,45.27
2019-01-23T01:39:52.306Z,45.90
2019-01-23T01:42:23.973Z,47.70
2019-01-23T01:44:55.447Z,47.33
2019-01-23T01:47:27.012Z,49.83
2019-01-23T01:49:58.825Z,46.13
2019-01-23T01:52:30.227Z,48.83
2019-01-23T01:55:01.572Z,48.97
2019-01-23T01:57:34.293Z,47.17
2019-01-23T02:00:09.451Z,49.93
2019-01-23T02:02:41.948Z,49.50
2019-01-23T02:05:14.344Z,49.37
2019-01-23T02:07:46.527Z,51.10
2019-01-23T02:10:19.941Z,48.30
2019-01-23T02:12:51.451Z,49.70
2019-01-23T02:15:23.124Z,48.33
2019-01-23T02:17:54.747Z,49.03
2019-01-23T02:20:28.429Z,47.73
2019-01-23T02:22:59.849Z,49.40
2019-01-23T02:25:31.364Z,49.43
2019-01-23T02:28:03.098Z,50.07
2019-01-23T02:30:36.060Z,49.40
2019-01-23T02:33:07.534Z,48.77
2019-01-23T02:35:39.294Z,49.53
2019-01-23T02:38:10.870Z,50.37
2019-01-23T02:40:43.021Z,46.17
2019-01-23T02:43:14.815Z,46.10
2019-01-23T02:45:46.717Z,47.63
2019-01-23T02:48:18.660Z,45.03
2019-01-23T02:50:50.063Z,44.80
2019-01-23T02:53:21.861Z,45.30
2019-01-23T02:55:53.381Z,47.43
2019-01-23T02:58:25.151Z,48.20
2019-01-23T03:00:56.797Z,46.43
2019-01-23T03:03:28.182Z,45.33
2019-01-23T03:05:59.866Z,43.87
2019-01-23T03:08:31.764Z,44.80
2019-01-23T03:11:07.573Z,45.97
2019-01-23T03:13:39.165Z,46.63
2019-01-23T03:16:16.186Z,43.90
2019-01-23T03:18:48.573Z,43.23
2019-01-23T03:21:20.259Z,41.80
2019-01-23T03:23:51.752Z,44.70
2019-01-23T03:26:23.012Z,41.33
2019-01-23T03:28:54.455Z,42.80
2019-01-23T03:31:25.969Z,43.07
2019-01-23T03:33:57.444Z,42.97
2019-01-23T03:36:29.262Z,43.37
2019-01-23T03:39:00.721Z,46.07
2019-01-23T03:41:34.107Z,43.47
2019-01-23T03:44:06.002Z,44.40
2019-01-23T03:46:37.836Z,44.90
2019-01-23T03:49:09.302Z,44.67
2019-01-23T03:51:41.640Z,42.40
2019-01-23T03:54:13.533Z,42.47
2019-01-23T03:56:45.179Z,43.97
2019-01-23T03:59:16.596Z,44.33
2019-01-23T04:01:48.066Z,45.83
2019-01-23T04:04:19.475Z,43.33
2019-01-23T04:06:51.245Z,45.30
2019-01-23T04:09:22.870Z,45.13
2019-01-23T04:11:54.596Z,44.33
2019-01-23T04:14:27.279Z,43.83
2019-01-23T04:16:58.954Z,44.33
2019-01-23T04:19:30.543Z,46.77
2019-01-23T04:22:02.081Z,48.13
2019-01-23T04:24:34.338Z,46.90
2019-01-23T04:27:06.365Z,48.97
2019-01-23T04:29:39.810Z,46.00
2019-01-23T04:32:12.284Z,45.17
2019-01-23T04:34:43.926Z,45.20
2019-01-23T04:37:15.944Z,43.90
2019-01-23T04:39:47.282Z,46.40
2019-01-23T04:42:18.715Z,44.27
2019-01-23T04:44:50.769Z,41.90
2019-01-23T04:47:22.181Z,42.87
2019-01-23T04:49:53.572Z,38.33
2019-01-23T04:52:47.964Z,38.03
2019-01-23T04:55:19.505Z,36.47
2019-01-23T04:57:51.577Z,49.75
2019-01-23T05:00:25.226Z,40.87
2019-01-23T05:02:56.881Z,39.43
2019-01-23T05:05:28.605Z,37.23
2019-01-23T05:08:05.352Z,41.00
2019-01-23T05:10:37.718Z,42.47
2019-01-23T05:13:09.317Z,39.43
2019-01-23T05:15:40.692Z,41.23
2019-01-23T05:18:12.989Z,39.63
2019-01-23T05:20:44.703Z,43.17
2019-01-23T05:23:16.331Z,50.40
2019-01-23T05:25:47.913Z,51.10
2019-01-23T05:28:21.366Z,52.60
2019-01-23T05:30:52.857Z,55.27
2019-01-23T05:33:24.260Z,54.83
2019-01-23T05:35:55.818Z,55.47
2019-01-23T05:38:27.888Z,54.80
2019-01-23T05:40:59.184Z,54.63
2019-01-23T05:43:30.858Z,55.07
2019-01-23T05:46:02.330Z,55.23
2019-01-23T05:48:33.778Z,54.57
2019-01-23T05:51:05.326Z,52.13
2019-01-23T05:53:36.725Z,52.47
2019-01-23T05:56:08.134Z,53.77
2019-01-23T05:58:39.631Z,53.40
2019-01-23T06:01:11.198Z,54.97
2019-01-23T06:03:42.885Z,55.57
2019-01-23T06:06:14.746Z,54.80
2019-01-23T06:08:46.579Z,57.87
2019-01-23T06:11:18.152Z,57.33
2019-01-23T06:13:49.727Z,55.43
2019-01-23T06:16:21.432Z,56.57
2019-01-23T06:18:52.887Z,56.70
2019-01-23T06:21:24.378Z,54.60
2019-01-23T06:23:55.912Z,56.00
2019-01-23T06:26:27.582Z,53.47
2019-01-23T06:28:58.955Z,54.93
2019-01-23T06:31:30.443Z,53.43
2019-01-23T06:34:02.150Z,54.20
2019-01-23T06:36:33.801Z,51.73
2019-01-23T06:39:08.888Z,54.40
2019-01-23T06:41:40.203Z,51.40
2019-01-23T06:44:11.675Z,51.50
2019-01-23T06:46:43.877Z,50.30
2019-01-23T06:49:15.881Z,49.53
2019-01-23T06:51:47.468Z,52.10
2019-01-23T06:54:19.003Z,53.33
2019-01-23T06:56:50.627Z,54.33
2019-01-23T06:59:22.874Z,56.03
2019-01-23T07:01:54.396Z,55.07
2019-01-23T07:04:25.675Z,54.40
2019-01-23T07:06:57.422Z,56.30
2019-01-23T07:09:28.762Z,54.83
2019-01-23T07:12:00.424Z,59.57
2019-01-23T07:14:32.339Z,59.63
2019-01-23T07:17:03.997Z,56.40
2019-01-23T07:19:35.601Z,68.05
2019-01-23T07:22:06.955Z,88.03
2019-01-23T07:24:38.655Z,83.25
2019-01-23T07:27:10.475Z,66.10
2019-01-23T07:29:42.148Z,84.00
2019-01-23T07:32:13.950Z,68.37
2019-01-23T07:34:45.693Z,62.53
2019-01-23T07:37:17.719Z,65.67
2019-01-23T07:39:49.282Z,64.87
2019-01-23T07:42:20.608Z,63.90
2019-01-23T07:44:52.556Z,66.43
2019-01-23T07:47:24.704Z,66.33
2019-01-23T07:49:56.166Z,68.63
2019-01-23T07:52:27.654Z,65.33
2019-01-23T07:54:59.153Z,66.07
2019-01-23T07:57:31.039Z,67.07
2019-01-23T08:00:03.055Z,65.97
2019-01-23T08:02:34.764Z,70.47
2019-01-23T08:05:07.847Z,66.90
2019-01-23T08:07:39.881Z,65.77
2019-01-23T08:10:16.071Z,68.87
2019-01-23T08:12:48.138Z,64.27
2019-01-23T08:15:31.049Z,64.30
2019-01-23T08:18:02.519Z,66.17
2019-01-23T08:20:34.296Z,65.43
2019-01-23T08:23:07.344Z,63.30
2019-01-23T08:25:39.088Z,61.93
2019-01-23T08:28:10.762Z,64.07
2019-01-23T08:30:42.686Z,63.13
2019-01-23T08:33:14.498Z,63.90
2019-01-23T08:35:46.408Z,65.80
2019-01-23T08:38:18.191Z,66.47
2019-01-23T08:40:49.793Z,66.13
2019-01-23T08:43:21.671Z,67.00
2019-01-23T08:45:53.102Z,64.40
2019-01-23T08:48:24.892Z,65.87
2019-01-23T08:50:57.273Z,64.63
2019-01-23T08:53:28.762Z,65.97
2019-01-23T08:56:00.213Z,65.17
2019-01-23T08:58:31.890Z,67.00
2019-01-23T09:01:03.171Z,62.57
2019-01-23T09:03:34.696Z,64.07
2019-01-23T09:06:06.373Z,61.67
2019-01-23T09:08:37.963Z,56.13
2019-01-23T09:11:09.349Z,56.87
2019-01-23T09:13:41.153Z,58.30
2019-01-23T09:16:13.581Z,59.73
2019-01-23T09:18:45.813Z,55.57
2019-01-23T09:21:17.334Z,59.03
2019-01-23T09:23:48.954Z,56.47
2019-01-23T09:26:20.618Z,55.30
2019-01-23T09:28:53.240Z,56.93
2019-01-23T09:32:04.772Z,56.37
2019-01-23T09:35:09.264Z,54.47
2019-01-23T09:38:14.886Z,54.10
2019-01-23T09:41:39.805Z,52.20
2019-01-23T09:44:39.087Z,53.30
2019-01-23T09:47:23.231Z,51.97
2019-01-23T09:50:25.011Z,53.00
2019-01-23T09:53:08.598Z,53.77
2019-01-23T09:55:40.160Z,53.57
2019-01-23T09:58:12.614Z,50.93
2019-01-23T10:00:44.523Z,48.47
2019-01-23T10:03:22.786Z,49.60
2019-01-23T10:05:50.305Z,48.03
2019-01-23T10:08:21.907Z,49.60
2019-01-23T10:10:53.386Z,48.37
2019-01-23T10:13:24.772Z,47.90
2019-01-23T10:16:03.774Z,42.30
2019-01-23T10:18:36.706Z,43.57
2019-01-23T10:21:08.795Z,44.07
2019-01-23T10:23:41.390Z,42.77
2019-01-23T10:26:14.108Z,42.67
2019-01-23T10:28:46.282Z,42.70
2019-01-23T10:31:18.564Z,40.60
2019-01-23T10:33:50.560Z,42.70
2019-01-23T10:36:23.360Z,41.10
2019-01-23T10:38:55.908Z,37.17
2019-01-23T10:41:27.974Z,38.17
2019-01-23T10:43:59.992Z,39.20
2019-01-23T10:46:32.840Z,39.47
2019-01-23T10:49:06.156Z,42.43
2019-01-23T10:51:38.309Z,43.60
2019-01-23T10:54:10.616Z,41.43
2019-01-23T10:56:49.593Z,40.30
2019-01-23T10:59:21.651Z,33.00
2019-01-23T11:01:54.068Z,35.07
2019-01-23T11:04:26.411Z,34.27
2019-01-23T11:06:58.653Z,38.53
2019-01-23T11:09:30.849Z,38.13
2019-01-23T11:12:03.243Z,38.73
2019-01-23T11:14:35.487Z,37.80
2019-01-23T11:17:13.436Z,34.70
2019-01-23T11:19:45.619Z,32.20
2019-01-23T11:22:17.899Z,34.80
2019-01-23T11:24:50.074Z,28.83
2019-01-23T11:27:22.620Z,26.07
2019-01-23T11:29:55.687Z,23.40
2019-01-23T11:32:27.938Z,23.20
2019-01-23T11:35:00.603Z,32.80
2019-01-23T11:37:33.184Z,26.20
2019-01-23T11:40:11.374Z,25.83
2019-01-23T11:42:45.447Z,25.13
2019-01-23T11:45:17.932Z,25.93
2019-01-23T11:47:50.318Z,27.53
2019-01-23T11:50:23.238Z,26.63
2019-01-23T11:52:55.598Z,23.47
2019-01-23T11:55:27.639Z,25.63
2019-01-23T11:57:59.989Z,24.83
2019-01-23T12:00:35.135Z,25.37
2019-01-23T12:03:08.199Z,22.07
2019-01-23T12:05:40.310Z,20.63
2019-01-23T12:08:13.671Z,18.77
2019-01-23T12:10:45.734Z,18.33
2019-01-23T12:13:17.564Z,19.77
2019-01-23T12:15:49.773Z,15.10
2019-01-23T12:18:21.950Z,16.33
2019-01-23T12:20:54.056Z,14.83
2019-01-23T12:23:26.106Z,15.87
2019-01-23T12:25:58.126Z,17.60
2019-01-23T12:28:31.402Z,17.83
2019-01-23T12:31:03.350Z,16.97
2019-01-23T12:33:35.411Z,18.67
2019-01-23T12:36:07.429Z,19.03
2019-01-23T12:38:39.329Z,19.17
2019-01-23T12:41:11.759Z,19.53
2019-01-23T12:43:43.943Z,18.73
2019-01-23T12:46:16.289Z,16.93
2019-01-23T12:48:48.489Z,19.50
2019-01-23T12:51:20.537Z,18.90
2019-01-23T12:53:52.687Z,18.77
2019-01-23T12:56:24.692Z,18.70
2019-01-23T12:58:57.520Z,18.57
2019-01-23T13:01:29.623Z,18.17
2019-01-23T13:04:01.938Z,19.67
2019-01-23T13:06:34.513Z,19.27
2019-01-23T13:09:09.268Z,20.80
2019-01-23T13:11:41.362Z,20.57
2019-01-23T13:14:13.537Z,16.07
2019-01-23T13:16:51.682Z,19.37
2019-01-23T13:19:24.311Z,21.27
2019-01-23T13:21:56.543Z,18.60
2019-01-23T13:24:28.450Z,19.90
2019-01-23T13:27:02.161Z,18.27
2019-01-23T13:29:34.959Z,21.73
2019-01-23T13:32:07.859Z,19.80
2019-01-23T13:34:40.370Z,20.37
2019-01-23T13:37:13.104Z,17.23
2019-01-23T13:39:45.234Z,18.63
2019-01-23T13:42:17.581Z,16.60
2019-01-23T13:44:50.216Z,22.30
2019-01-23T13:47:23.694Z,21.53
2019-01-23T13:49:56.530Z,19.73
2019-01-23T13:52:29.106Z,26.13
2019-01-23T13:55:01.845Z,26.33
2019-01-23T13:57:39.094Z,22.00
2019-01-23T14:00:15.929Z,25.47
2019-01-23T14:02:48.891Z,21.83
2019-01-23T14:05:20.760Z,26.73
2019-01-23T14:07:53.520Z,28.83
2019-01-23T14:10:26.206Z,30.43
2019-01-23T14:12:58.437Z,27.63
2019-01-23T14:15:32.477Z,23.03
2019-01-23T14:18:05.416Z,24.67
2019-01-23T14:20:38.123Z,23.87
2019-01-23T14:23:10.282Z,25.20
2019-01-23T14:25:43.584Z,25.70
2019-01-23T14:28:16.301Z,24.13
2019-01-23T14:30:48.407Z,23.67
2019-01-23T14:33:20.271Z,22.80
2019-01-23T14:35:52.286Z,21.37
2019-01-23T14:38:24.617Z,23.70
2019-01-23T14:40:58.827Z,21.57
2019-01-23T14:43:31.219Z,20.80
2019-01-23T14:46:03.825Z,22.67
2019-01-23T14:48:36.200Z,22.97
2019-01-23T14:51:08.495Z,21.27
2019-01-23T14:53:40.560Z,20.93
2019-01-23T14:56:12.977Z,21.07
2019-01-23T14:58:45.606Z,20.63
2019-01-23T15:01:17.703Z,20.07
2019-01-23T15:03:50.296Z,21.47
2019-01-23T15:06:27.241Z,21.83
2019-01-23T15:08:59.376Z,21.40
2019-01-23T15:11:31.367Z,20.73
2019-01-23T15:14:03.443Z,21.57
2019-01-23T15:16:35.901Z,22.20
2019-01-23T15:19:07.841Z,20.13
2019-01-23T15:21:39.710Z,19.43
2019-01-23T15:24:11.964Z,20.80
2019-01-23T15:26:44.433Z,21.00
2019-01-23T15:29:16.707Z,20.83
2019-01-23T15:31:49.056Z,20.93
2019-01-23T15:34:21.250Z,20.23
2019-01-23T15:36:58.444Z,19.33
2019-01-23T15:39:30.676Z,18.63
2019-01-23T15:42:04.984Z,19.17
2019-01-23T15:44:38.097Z,18.83
2019-01-23T15:47:10.324Z,18.87
2019-01-23T15:49:43.467Z,18.53
2019-01-23T15:52:18.125Z,22.93
2019-01-23T15:54:51.310Z,18.73
2019-01-23T15:57:23.333Z,18.77
2019-01-23T15:59:55.425Z,18.67
2019-01-23T16:02:27.463Z,18.30
2019-01-23T16:04:59.671Z,18.27
2019-01-23T16:07:36.891Z,18.03
2019-01-23T16:10:09.981Z,18.33
2019-01-23T16:12:43.907Z,17.43
2019-01-23T16:15:17.131Z,17.63
2019-01-23T16:17:49.767Z,18.20
2019-01-23T16:20:22.369Z,18.57
2019-01-23T16:22:54.566Z,17.10
2019-01-23T16:25:26.594Z,18.30
2019-01-23T16:27:58.615Z,18.93
2019-01-23T16:30:33.506Z,18.70
2019-01-23T16:33:06.318Z,19.13
2019-01-23T16:35:38.671Z,19.17
2019-01-23T16:38:12.529Z,17.73
2019-01-23T16:40:44.759Z,17.77
2019-01-23T16:43:17.050Z,18.10
2019-01-23T16:45:48.984Z,18.10
2019-01-23T16:48:26.374Z,19.67
2019-01-23T16:50:58.776Z,19.70
2019-01-23T16:53:31.185Z,17.97
2019-01-23T16:56:03.896Z,17.33
2019-01-23T16:58:36.254Z,19.53
2019-01-23T17:01:08.345Z,16.43
2019-01-23T17:03:40.481Z,18.40
2019-01-23T17:06:13.672Z,16.87
2019-01-23T17:08:46.293Z,17.40
2019-01-23T17:11:18.479Z,17.60
2019-01-23T17:13:50.718Z,17.70
2019-01-23T17:16:23.409Z,16.23
2019-01-23T17:18:56.024Z,16.37
2019-01-23T17:21:28.826Z,16.47
2019-01-23T17:24:00.826Z,15.80
2019-01-23T17:26:33.120Z,15.90
2019-01-23T17:29:05.406Z,16.53
2019-01-23T17:31:38.339Z,16.33
2019-01-23T17:34:10.655Z,16.90
2019-01-23T17:36:43.298Z,16.47
2019-01-23T17:39:15.904Z,16.43
2019-01-23T17:41:47.921Z,16.63
2019-01-23T17:44:19.908Z,15.50
2019-01-23T17:46:51.933Z,24.50
2019-01-23T17:49:24.055Z,32.73
2019-01-23T17:51:55.597Z,30.90
2019-01-23T17:54:27.460Z,40.17
2019-01-23T17:56:59.381Z,23.50
2019-01-23T17:59:31.398Z,22.23
2019-01-23T18:02:05.062Z,22.10
2019-01-23T18:04:36.912Z,19.03
2019-01-23T18:07:08.743Z,21.70
2019-01-23T18:09:40.201Z,21.43
2019-01-23T18:12:11.888Z,20.47
2019-01-23T18:14:49.047Z,20.97
2019-01-23T18:17:17.047Z,21.80
2019-01-23T18:19:48.680Z,20.20
2019-01-23T18:22:20.321Z,19.40
2019-01-23T18:24:51.864Z,18.33
2019-01-23T18:27:24.019Z,18.00
2019-01-23T18:29:55.731Z,20.27
2019-01-23T18:32:27.541Z,19.30
2019-01-23T18:35:45.133Z,19.00
2019-01-23T18:38:47.173Z,18.93
2019-01-23T18:42:04.532Z,19.90
2019-01-23T18:45:02.865Z,21.60
2019-01-23T18:48:17.834Z,21.87
2019-01-23T18:51:08.220Z,20.30
2019-01-23T18:53:39.604Z,21.93
2019-01-23T18:56:11.198Z,22.13
2019-01-23T18:58:43.918Z,21.57
2019-01-23T19:01:15.722Z,21.60
2019-01-23T19:03:47.645Z,19.53
2019-01-23T19:06:18.948Z,19.80
2019-01-23T19:08:50.226Z,18.43
2019-01-23T19:11:21.796Z,19.87
2019-01-23T19:13:53.277Z,18.77
2019-01-23T19:16:25.111Z,19.33
2019-01-23T19:18:56.889Z,19.10
2019-01-23T19:21:28.567Z,19.80
2019-01-23T19:24:00.019Z,20.00
2019-01-23T19:26:31.751Z,21.13
2019-01-23T19:29:03.342Z,20.30
2019-01-23T19:31:34.547Z,20.47
2019-01-23T19:34:06.338Z,21.77
2019-01-23T19:36:38.244Z,22.43
2019-01-23T19:39:10.331Z,21.63
2019-01-23T19:41:42.230Z,22.90
2019-01-23T19:44:14.421Z,20.97
2019-01-23T19:46:46.584Z,20.73
2019-01-23T19:49:18.579Z,19.67
2019-01-23T19:51:50.375Z,22.17
2019-01-23T19:54:22.032Z,20.67
2019-01-23T19:56:54.335Z,23.03
2019-01-23T19:59:26.192Z,20.20
2019-01-23T20:01:57.852Z,19.40
2019-01-23T20:04:29.747Z,21.20
2019-01-23T20:07:03.023Z,21.93
2019-01-23T20:09:35.063Z,20.80
2019-01-23T20:12:07.532Z,22.47
2019-01-23T20:14:40.829Z,25.03
2019-01-23T20:17:14.735Z,23.10
2019-01-23T20:19:46.692Z,25.53
2019-01-23T20:22:18.365Z,27.33
2019-01-23T20:24:50.225Z,24.37
2019-01-23T20:27:27.419Z,25.57
2019-01-23T20:29:59.649Z,25.17
2019-01-23T20:32:31.740Z,23.50
2019-01-23T20:35:04.782Z,25.30
2019-01-23T20:37:38.581Z,24.33
2019-01-23T20:40:11.462Z,25.33
2019-01-23T20:42:44.766Z,24.50
2019-01-23T20:45:16.877Z,23.70
2019-01-23T20:47:49.529Z,23.80
2019-01-23T20:50:26.936Z,27.00
2019-01-23T20:52:59.127Z,21.67
2019-01-23T20:55:31.124Z,24.70
2019-01-23T20:58:03.644Z,24.03
2019-01-23T21:00:35.788Z,26.43
2019-01-23T21:03:09.597Z,25.27
2019-01-23T21:05:41.568Z,26.67
2019-01-23T21:08:13.819Z,26.53
2019-01-23T21:10:46.646Z,27.07
2019-01-23T21:13:18.643Z,25.83
2019-01-23T21:15:50.538Z,28.30
2019-01-23T21:18:28.669Z,27.80
2019-01-23T21:21:00.765Z,28.20
2019-01-23T21:23:34.399Z,29.17
2019-01-23T21:26:06.396Z,28.73
2019-01-23T21:28:38.760Z,26.30
2019-01-23T21:31:10.557Z,23.63
2019-01-23T21:33:42.777Z,23.97
2019-01-23T21:36:15.601Z,28.03
2019-01-23T21:38:47.520Z,26.90
2019-01-23T21:41:19.272Z,27.80
2019-01-23T21:43:51.291Z,29.47
2019-01-23T21:46:23.389Z,28.20
2019-01-23T21:48:55.229Z,28.97
2019-01-23T21:51:26.820Z,29.13
2019-01-23T21:53:58.442Z,28.47
2019-01-23T21:56:30.334Z,27.27
2019-01-23T21:59:02.183Z,28.73
2019-01-23T22:01:33.679Z,28.97
2019-01-23T22:04:06.145Z,27.57
2019-01-23T22:06:38.498Z,28.23
2019-01-23T22:09:10.901Z,25.40
2019-01-23T22:11:43.636Z,26.57
2019-01-23T22:14:15.820Z,29.80
2019-01-23T22:16:48.282Z,27.67
2019-01-23T22:19:20.165Z,27.70
2019-01-23T22:21:51.879Z,27.83
2019-01-23T22:24:23.530Z,28.93
2019-01-23T22:27:00.253Z,27.70
2019-01-23T22:29:32.838Z,25.17
2019-01-23T22:32:06.017Z,29.83
2019-01-23T22:34:37.566Z,29.23
2019-01-23T22:37:09.505Z,30.90
2019-01-23T22:39:41.451Z,28.93
2019-01-23T22:42:13.752Z,28.87
2019-01-23T22:44:45.959Z,30.90
2019-01-23T22:47:17.858Z,29.93
2019-01-23T22:49:49.670Z,26.73
2019-01-23T22:52:21.182Z,28.73
2019-01-23T22:54:53.171Z,28.17
2019-01-23T22:57:25.282Z,27.27
2019-01-23T22:59:56.903Z,29.50
2019-01-23T23:02:28.489Z,29.83
2019-01-23T23:05:00.163Z,29.20
2019-01-23T23:07:31.816Z,29.27
2019-01-23T23:10:04.037Z,30.43
2019-01-23T23:12:36.045Z,31.07
2019-01-23T23:15:09.257Z,30.47
2019-01-23T23:17:42.698Z,32.80
2019-01-23T23:20:14.981Z,29.23
2019-01-23T23:22:46.916Z,29.23
2019-01-23T23:25:18.679Z,30.33
2019-01-23T23:27:50.289Z,26.83
2019-01-23T23:30:22.260Z,26.60
2019-01-23T23:32:54.110Z,26.17
2019-01-23T23:35:25.748Z,27.00
2019-01-23T23:37:57.556Z,26.87
2019-01-23T23:40:29.415Z,28.03
2019-01-23T23:43:01.051Z,28.23
2019-01-23T23:45:32.763Z,27.70
2019-01-23T23:48:06.477Z,28.60
2019-01-23T23:50:38.560Z,27.67
2019-01-23T23:53:10.026Z,29.47
2019-01-23T23:55:42.239Z,28.57
2019-01-23T23:58:14.834Z,28.57
